createdAt,value
2023-02-23T00:01:22.190Z,370.28
2023-02-23T00:04:29.828Z,370.43
2023-02-23T00:07:36.914Z,374.44
2023-02-23T00:10:44.633Z,384.04
2023-02-23T00:13:54.284Z,394.32
2023-02-23T00:17:01.477Z,392.22
2023-02-23T00:20:12.835Z,406.29
2023-02-23T00:23:19.409Z,375.69
2023-02-23T00:26:31.094Z,348.66
2023-02-23T00:29:40.694Z,328.23
2023-02-23T00:32:47.220Z,305.15
2023-02-23T00:35:55.631Z,288.28
2023-02-23T00:39:06.512Z,280.26
2023-02-23T00:42:13.779Z,271.54
2023-02-23T00:45:22.238Z,256.02
2023-02-23T00:48:28.891Z,251.72
2023-02-23T00:51:34.798Z,249.12
2023-02-23T00:54:41.416Z,235.08
2023-02-23T00:57:47.343Z,232.30
2023-02-23T01:00:57.203Z,241.02
2023-02-23T01:04:04.818Z,237.04
2023-02-23T01:07:13.117Z,280.85
2023-02-23T01:10:22.651Z,306.13
2023-02-23T01:13:29.923Z,350.13
2023-02-23T01:16:39.195Z,461.07
2023-02-23T01:19:45.764Z,231.37
2023-02-23T01:22:54.272Z,270.03
2023-02-23T01:26:01.730Z,239.24
2023-02-23T01:29:11.304Z,258.59
2023-02-23T01:32:20.555Z,214.49
2023-02-23T01:35:27.245Z,199.43
2023-02-23T01:38:33.760Z,187.35
2023-02-23T01:41:42.616Z,184.29
2023-02-23T01:45:27.233Z,187.82
2023-02-23T01:48:43.582Z,185.68
2023-02-23T01:51:58.873Z,182.32
2023-02-23T01:55:06.322Z,194.05
2023-02-23T01:58:21.909Z,202.40
2023-02-23T02:01:29.755Z,178.67
2023-02-23T02:04:46.865Z,173.49
2023-02-23T02:07:59.252Z,164.57
2023-02-23T02:11:25.975Z,162.79
2023-02-23T02:14:35.088Z,162.29
2023-02-23T02:18:03.393Z,172.71
2023-02-23T02:22:12.564Z,176.25
2023-02-23T02:25:43.984Z,166.21
2023-02-23T02:29:43.146Z,190.58
2023-02-23T02:33:46.916Z,227.66
2023-02-23T02:37:36.172Z,190.88
2023-02-23T02:40:56.065Z,173.09
2023-02-23T02:44:18.192Z,176.93
2023-02-23T02:47:36.704Z,173.09
2023-02-23T02:50:56.405Z,175.12
2023-02-23T02:54:17.167Z,168.87
2023-02-23T02:57:29.997Z,171.35
2023-02-23T03:00:55.184Z,175.08
2023-02-23T03:04:18.491Z,166.76
2023-02-23T03:07:46.925Z,174.87
2023-02-23T03:11:18.031Z,176.04
2023-02-23T03:14:59.517Z,179.72
2023-02-23T03:18:52.144Z,171.93
2023-02-23T03:22:23.255Z,178.55
2023-02-23T03:25:58.502Z,173.81
2023-02-23T03:29:32.128Z,178.96
2023-02-23T03:33:03.584Z,175.83
2023-02-23T03:36:34.651Z,169.14
2023-02-23T03:40:07.541Z,173.91
2023-02-23T03:43:34.867Z,175.02
2023-02-23T03:47:02.055Z,175.67
2023-02-23T03:50:30.779Z,163.75
2023-02-23T03:54:00.064Z,171.19
2023-02-23T03:57:28.601Z,175.82
2023-02-23T04:00:57.678Z,172.41
2023-02-23T04:04:23.355Z,176.38
2023-02-23T04:07:42.137Z,187.02
2023-02-23T04:11:13.902Z,188.91
2023-02-23T04:14:30.099Z,185.68
2023-02-23T04:17:37.823Z,187.94
2023-02-23T04:20:47.999Z,184.95
2023-02-23T04:23:54.890Z,193.40
2023-02-23T04:27:01.724Z,199.33
2023-02-23T04:30:11.685Z,202.25
2023-02-23T04:33:18.675Z,200.70
2023-02-23T04:36:28.003Z,203.57
2023-02-23T04:39:34.059Z,202.95
2023-02-23T04:42:43.062Z,199.90
2023-02-23T04:45:50.877Z,204.91
2023-02-23T04:48:57.417Z,218.78
2023-02-23T04:52:06.269Z,222.49
2023-02-23T04:55:21.641Z,228.15
2023-02-23T04:58:27.893Z,261.37
2023-02-23T05:01:34.502Z,294.32
2023-02-23T05:04:40.496Z,286.98
2023-02-23T05:07:50.041Z,277.05
2023-02-23T05:10:55.810Z,265.85
2023-02-23T05:14:02.430Z,259.53
2023-02-23T05:17:08.827Z,255.43
2023-02-23T05:20:17.898Z,277.10
2023-02-23T05:23:26.369Z,283.31
2023-02-23T05:26:33.003Z,275.57
2023-02-23T05:29:39.123Z,263.26
2023-02-23T05:32:45.779Z,260.47
2023-02-23T05:35:51.937Z,239.14
2023-02-23T05:39:01.220Z,238.13
2023-02-23T05:42:07.324Z,241.47
2023-02-23T05:45:14.791Z,264.38
2023-02-23T05:48:20.559Z,274.98
2023-02-23T05:51:27.263Z,319.72
2023-02-23T05:54:35.725Z,330.26
2023-02-23T05:57:43.990Z,313.63
2023-02-23T06:00:49.782Z,302.28
2023-02-23T06:03:56.923Z,289.68
2023-02-23T06:07:02.872Z,282.13
2023-02-23T06:10:14.591Z,271.01
2023-02-23T06:13:21.478Z,273.09
2023-02-23T06:16:28.269Z,281.78
2023-02-23T06:19:34.308Z,278.09
2023-02-23T06:22:42.499Z,280.64
2023-02-23T06:25:51.168Z,270.86
2023-02-23T06:28:58.261Z,270.71
2023-02-23T06:32:04.180Z,277.25
2023-02-23T06:35:12.042Z,278.40
2023-02-23T06:38:18.093Z,269.61
2023-02-23T06:41:28.977Z,277.32
2023-02-23T06:44:35.641Z,277.28
2023-02-23T06:47:42.918Z,277.26
2023-02-23T06:50:48.675Z,269.79
2023-02-23T06:53:55.793Z,264.82
2023-02-23T06:57:04.653Z,261.20
2023-02-23T07:00:15.278Z,270.96
2023-02-23T07:03:22.131Z,259.45
2023-02-23T07:06:28.860Z,266.65
2023-02-23T07:09:34.804Z,275.75
2023-02-23T07:12:43.971Z,274.45
2023-02-23T07:15:49.845Z,276.11
2023-02-23T07:18:56.833Z,268.02
2023-02-23T07:22:03.127Z,275.42
2023-02-23T07:25:11.688Z,272.29
2023-02-23T07:28:21.288Z,278.55
2023-02-23T07:31:28.620Z,292.94
2023-02-23T07:34:34.465Z,306.45
2023-02-23T07:37:42.367Z,300.18
2023-02-23T07:40:48.217Z,322.61
2023-02-23T07:43:57.552Z,343.68
2023-02-23T07:47:03.640Z,323.26
2023-02-23T07:50:12.856Z,307.94
2023-02-23T07:53:19.040Z,308.79
2023-02-23T07:56:26.117Z,298.70
2023-02-23T07:59:37.465Z,290.24
2023-02-23T08:02:44.897Z,291.34
2023-02-23T08:05:51.036Z,280.05
2023-02-23T08:08:57.599Z,289.01
2023-02-23T08:12:04.006Z,287.39
2023-02-23T08:15:14.598Z,279.12
2023-02-23T08:18:20.647Z,282.47
2023-02-23T08:21:29.423Z,280.79
2023-02-23T08:24:35.760Z,293.50
2023-02-23T08:27:42.579Z,295.75
2023-02-23T08:30:51.040Z,299.01
2023-02-23T08:33:57.932Z,312.54
2023-02-23T08:37:03.852Z,316.11
2023-02-23T08:40:15.723Z,288.70
2023-02-23T08:43:21.491Z,285.24
2023-02-23T08:46:31.676Z,280.77
2023-02-23T08:49:37.527Z,292.26
2023-02-23T08:52:45.363Z,288.85
2023-02-23T08:56:00.823Z,286.92
2023-02-23T08:59:08.028Z,297.05
2023-02-23T09:02:18.325Z,293.85
2023-02-23T09:05:24.950Z,301.87
2023-02-23T09:08:30.904Z,296.98
2023-02-23T09:11:37.604Z,284.43
2023-02-23T09:14:43.332Z,279.23
2023-02-23T09:17:54.756Z,283.13
2023-02-23T09:21:00.817Z,271.56
2023-02-23T09:24:08.272Z,254.22
2023-02-23T09:27:15.126Z,249.43
2023-02-23T09:30:24.718Z,249.05
2023-02-23T09:33:33.062Z,235.58
2023-02-23T09:36:40.280Z,243.22
2023-02-23T09:39:46.507Z,230.44
2023-02-23T09:43:06.482Z,226.24
2023-02-23T09:46:31.143Z,234.71
2023-02-23T09:49:48.006Z,235.64
2023-02-23T09:53:03.360Z,227.80
2023-02-23T09:56:21.569Z,221.16
2023-02-23T09:59:29.511Z,220.49
2023-02-23T10:02:58.390Z,219.02
2023-02-23T10:06:14.350Z,223.89
2023-02-23T10:09:45.924Z,224.69
2023-02-23T10:13:08.282Z,223.86
2023-02-23T10:16:27.822Z,232.56
2023-02-23T10:19:50.808Z,232.64
2023-02-23T10:23:12.141Z,216.67
2023-02-23T10:26:27.052Z,231.12
2023-02-23T10:29:42.754Z,230.62
2023-02-23T10:32:59.272Z,220.35
2023-02-23T10:36:22.258Z,217.99
2023-02-23T10:39:32.899Z,226.47
2023-02-23T10:42:39.541Z,226.40
2023-02-23T10:45:51.540Z,227.16
2023-02-23T10:49:00.703Z,2309.66
2023-02-23T10:52:07.608Z,539.55
2023-02-23T10:55:28.824Z,260.38
2023-02-23T10:58:43.882Z,210.33
2023-02-23T11:02:01.333Z,260.17
2023-02-23T11:05:10.329Z,936.45
2023-02-23T11:08:32.205Z,974.96
2023-02-23T11:11:40.720Z,193.13
2023-02-23T11:14:48.308Z,188.87
2023-02-23T11:18:01.309Z,188.82
2023-02-23T11:21:15.645Z,190.41
2023-02-23T11:24:31.055Z,324.85
2023-02-23T11:27:40.358Z,199.30
2023-02-23T11:30:46.477Z,206.65
2023-02-23T11:33:57.511Z,185.96
2023-02-23T11:37:08.688Z,190.54
2023-02-23T11:40:28.116Z,197.91
2023-02-23T11:43:36.822Z,203.03
2023-02-23T11:46:46.811Z,572.84
2023-02-23T11:49:55.345Z,181.57
2023-02-23T11:53:09.737Z,183.64
2023-02-23T11:56:25.865Z,187.02
2023-02-23T11:59:41.466Z,171.26
2023-02-23T12:02:56.661Z,183.99
2023-02-23T12:06:03.237Z,177.95
2023-02-23T12:09:25.677Z,222.91
2023-02-23T12:12:43.033Z,175.02
2023-02-23T12:16:00.333Z,169.98
2023-02-23T12:19:25.882Z,170.49
2023-02-23T12:22:41.777Z,163.84
2023-02-23T12:25:57.764Z,159.80
2023-02-23T12:29:20.586Z,165.13
2023-02-23T12:32:43.791Z,158.70
2023-02-23T12:36:01.016Z,158.17
2023-02-23T12:39:24.594Z,148.88
2023-02-23T12:42:48.324Z,158.76
2023-02-23T12:46:02.653Z,169.34
2023-02-23T12:49:25.704Z,218.95
2023-02-23T12:52:40.222Z,605.72
2023-02-23T12:56:07.672Z,276.60
2023-02-23T12:59:59.823Z,2397.55
2023-02-23T13:03:45.010Z,164.42
2023-02-23T13:07:09.458Z,162.25
2023-02-23T13:10:32.666Z,159.90
2023-02-23T13:13:51.981Z,161.70
2023-02-23T13:17:11.708Z,186.00
2023-02-23T13:20:33.725Z,340.84
2023-02-23T13:23:57.873Z,155.53
2023-02-23T13:27:19.508Z,270.94
2023-02-23T13:30:25.439Z,163.21
2023-02-23T13:33:43.646Z,155.59
2023-02-23T13:36:52.390Z,208.74
2023-02-23T13:40:22.117Z,189.31
2023-02-23T13:43:37.633Z,155.40
2023-02-23T13:46:57.657Z,156.39
2023-02-23T13:50:19.350Z,177.06
2023-02-23T13:53:41.454Z,222.13
2023-02-23T13:56:57.071Z,244.80
2023-02-23T14:00:05.084Z,254.22
2023-02-23T14:03:34.240Z,223.54
2023-02-23T14:06:43.231Z,163.31
2023-02-23T14:10:01.677Z,176.38
2023-02-23T14:13:31.767Z,163.08
2023-02-23T14:16:37.756Z,179.80
2023-02-23T14:19:46.857Z,182.04
2023-02-23T14:23:33.356Z,215.45
2023-02-23T14:26:48.416Z,182.37
2023-02-23T14:30:25.611Z,454.12
2023-02-23T14:34:03.599Z,418.99
2023-02-23T14:37:25.283Z,692.70
2023-02-23T14:40:38.005Z,230.91
2023-02-23T14:43:48.641Z,184.59
2023-02-23T14:47:07.259Z,190.87
2023-02-23T14:50:25.803Z,204.61
2023-02-23T14:53:32.434Z,223.91
2023-02-23T14:56:48.338Z,426.68
2023-02-23T15:00:05.998Z,510.09
2023-02-23T15:03:22.595Z,202.15
2023-02-23T15:06:29.382Z,229.78
2023-02-23T15:09:44.021Z,347.67
2023-02-23T15:12:52.138Z,216.27
2023-02-23T15:16:01.880Z,233.26
2023-02-23T15:19:11.431Z,227.58
2023-02-23T15:22:30.003Z,223.16
2023-02-23T15:25:40.689Z,230.03
2023-02-23T15:28:49.100Z,231.24
2023-02-23T15:31:58.630Z,244.88
2023-02-23T15:35:12.078Z,237.39
2023-02-23T15:38:42.355Z,255.92
2023-02-23T15:41:52.832Z,290.98
2023-02-23T15:45:05.056Z,263.81
2023-02-23T15:48:21.095Z,251.90
2023-02-23T15:51:40.610Z,256.13
2023-02-23T15:55:00.507Z,295.51
2023-02-23T15:58:21.717Z,270.72
2023-02-23T16:01:30.700Z,277.47
2023-02-23T16:04:44.503Z,244.31
2023-02-23T16:08:07.205Z,273.09
2023-02-23T16:11:19.965Z,271.72
2023-02-23T16:14:30.632Z,292.16
2023-02-23T16:17:48.533Z,342.65
2023-02-23T16:20:58.879Z,346.29
2023-02-23T16:24:22.358Z,326.67
2023-02-23T16:27:32.751Z,313.83
2023-02-23T16:30:45.924Z,315.83
2023-02-23T16:33:58.844Z,348.75
2023-02-23T16:37:18.481Z,398.28
2023-02-23T16:40:27.616Z,434.63
2023-02-23T16:43:37.214Z,480.65
2023-02-23T16:47:01.665Z,455.52
2023-02-23T16:50:21.220Z,408.99
2023-02-23T16:53:27.500Z,383.67
2023-02-23T16:56:37.554Z,478.41
2023-02-23T16:59:43.746Z,575.93
2023-02-23T17:02:50.572Z,516.19
2023-02-23T17:05:57.580Z,624.03
2023-02-23T17:09:04.586Z,2068.33
2023-02-23T17:12:18.507Z,2302.02
2023-02-23T17:15:29.339Z,1366.02
2023-02-23T17:18:43.116Z,3813.78
2023-02-23T17:21:50.133Z,1829.81
2023-02-23T17:24:55.942Z,1778.92
2023-02-23T17:28:05.826Z,595.73
2023-02-23T17:31:12.084Z,803.96
2023-02-23T17:34:18.812Z,406.36
2023-02-23T17:37:25.180Z,528.00
2023-02-23T17:40:36.512Z,434.88
2023-02-23T17:43:45.219Z,424.75
2023-02-23T17:46:51.945Z,384.76
2023-02-23T17:49:57.855Z,378.49
2023-02-23T17:53:04.387Z,373.61
2023-02-23T17:56:11.943Z,854.63
2023-02-23T17:59:21.142Z,817.72
2023-02-23T18:02:27.910Z,777.15
2023-02-23T18:05:34.829Z,642.37
2023-02-23T18:08:43.986Z,771.29
2023-02-23T18:11:50.575Z,534.89
2023-02-23T18:15:01.798Z,494.19
2023-02-23T18:18:08.509Z,581.95
2023-02-23T18:21:19.298Z,655.37
2023-02-23T18:24:27.467Z,607.96
2023-02-23T18:27:33.534Z,608.69
2023-02-23T18:30:43.744Z,565.83
2023-02-23T18:33:53.112Z,534.25
2023-02-23T18:37:03.760Z,551.29
2023-02-23T18:40:21.625Z,734.58
2023-02-23T18:43:28.496Z,810.66
2023-02-23T18:46:37.779Z,627.70
2023-02-23T18:49:44.371Z,672.41
2023-02-23T18:52:53.216Z,790.41
2023-02-23T18:56:08.941Z,962.68
2023-02-23T18:59:15.554Z,990.22
2023-02-23T19:02:25.443Z,859.27
2023-02-23T19:05:31.584Z,841.04
2023-02-23T19:08:38.361Z,874.19
2023-02-23T19:11:46.509Z,815.34
2023-02-23T19:14:54.388Z,754.02
2023-02-23T19:18:02.860Z,821.27
2023-02-23T19:21:09.939Z,762.41
2023-02-23T19:24:16.174Z,734.34
2023-02-23T19:27:23.660Z,807.40
2023-02-23T19:30:29.644Z,775.57
2023-02-23T19:33:41.181Z,683.17
2023-02-23T19:36:47.218Z,779.98
2023-02-23T19:39:54.145Z,639.45
2023-02-23T19:43:00.649Z,578.86
2023-02-23T19:46:08.248Z,561.98
2023-02-23T19:49:16.709Z,586.40
2023-02-23T19:52:24.899Z,598.12
2023-02-23T19:55:31.155Z,579.81
2023-02-23T19:58:38.957Z,632.12
2023-02-23T20:01:45.988Z,599.52
2023-02-23T20:04:55.297Z,633.99
2023-02-23T20:08:01.266Z,899.15
2023-02-23T20:11:09.860Z,846.59
2023-02-23T20:14:15.731Z,1740.64
2023-02-23T20:17:23.888Z,1627.47
2023-02-23T20:20:32.296Z,924.06
2023-02-23T20:23:39.016Z,1274.72
2023-02-23T20:26:45.432Z,1078.87
2023-02-23T20:29:53.892Z,896.81
2023-02-23T20:33:00.557Z,728.69
2023-02-23T20:36:12.264Z,682.83
2023-02-23T20:39:19.271Z,810.91
2023-02-23T20:42:28.542Z,617.41
2023-02-23T20:45:34.695Z,571.88
2023-02-23T20:48:41.391Z,536.68
2023-02-23T20:51:51.987Z,510.06
2023-02-23T20:54:59.374Z,467.35
2023-02-23T20:58:06.033Z,417.78
2023-02-23T21:01:19.343Z,458.37
2023-02-23T21:04:26.822Z,506.60
2023-02-23T21:07:36.106Z,360.05
2023-02-23T21:10:43.362Z,410.91
2023-02-23T21:13:50.347Z,394.46
2023-02-23T21:16:56.098Z,474.43
2023-02-23T21:20:02.662Z,384.63
2023-02-23T21:23:11.203Z,432.41
2023-02-23T21:26:21.814Z,413.96
2023-02-23T21:29:28.136Z,385.35
2023-02-23T21:32:41.452Z,356.67
2023-02-23T21:35:47.400Z,323.60
2023-02-23T21:38:56.750Z,326.99
2023-02-23T21:42:04.346Z,341.39
2023-02-23T21:45:14.085Z,348.64
2023-02-23T21:48:22.767Z,345.87
2023-02-23T21:51:30.695Z,360.07
2023-02-23T21:54:39.764Z,373.20
2023-02-23T21:57:47.996Z,389.66
2023-02-23T22:00:53.837Z,361.72
2023-02-23T22:04:01.464Z,345.59
2023-02-23T22:07:08.295Z,347.02
2023-02-23T22:10:17.838Z,349.29
2023-02-23T22:13:23.570Z,354.59
2023-02-23T22:16:33.446Z,339.68
2023-02-23T22:19:39.155Z,349.92
2023-02-23T22:22:45.783Z,332.79
2023-02-23T22:25:54.132Z,313.53
2023-02-23T22:29:00.794Z,299.49
2023-02-23T22:32:06.720Z,333.02
2023-02-23T22:35:14.709Z,321.03
2023-02-23T22:38:21.996Z,301.66
2023-02-23T22:41:32.076Z,307.01
2023-02-23T22:44:41.541Z,290.87
2023-02-23T22:47:48.337Z,280.20
2023-02-23T22:50:54.665Z,298.74
2023-02-23T22:54:01.269Z,287.00
2023-02-23T22:57:09.914Z,288.30
2023-02-23T23:00:21.364Z,280.83
2023-02-23T23:03:27.632Z,268.68
2023-02-23T23:06:34.476Z,278.89
2023-02-23T23:09:40.266Z,287.00
2023-02-23T23:12:49.670Z,290.17
2023-02-23T23:16:07.474Z,296.22
2023-02-23T23:19:16.233Z,298.01
2023-02-23T23:22:22.092Z,290.54
2023-02-23T23:25:29.702Z,278.74
2023-02-23T23:28:40.732Z,256.30
2023-02-23T23:31:48.078Z,224.19
2023-02-23T23:34:57.492Z,216.00
2023-02-23T23:38:06.289Z,207.77
2023-02-23T23:41:14.309Z,197.23
2023-02-23T23:44:29.435Z,192.52
2023-02-23T23:47:35.487Z,192.90
2023-02-23T23:50:42.484Z,192.18
2023-02-23T23:53:48.253Z,185.82
2023-02-23T23:56:55.295Z,187.26
